Time;durP1;ratioP1;P1;durP2;ratioP2;P2;SDS_P1;SDS_P2;PMS_P1;PMS_P2;Temp;Humidity;BMP_temperature;BMP_pressure;BME280_temperature;BME280_humidity;BME280_pressure;Samples;Min_cycle;Max_cycle;Signal;HPM_P1;HPM_P2
2022/08/19 00:01:55;;;;;;;5.57;2.13;;;22.30;94.20;;;;;;5062227;28;20221;-80
2022/08/19 00:04:27;;;;;;;8.83;3.10;;;22.40;94.30;;;;;;5062122;28;20218;-79
2022/08/19 00:06:54;;;;;;;6.60;2.57;;;22.40;94.40;;;;;;5056668;28;20206;-80
2022/08/19 00:09:23;;;;;;;8.07;2.93;;;22.30;94.50;;;;;;5064422;28;20290;-81
2022/08/19 00:11:55;;;;;;;12.47;3.50;;;22.40;94.60;;;;;;5057291;28;20283;-80
2022/08/19 00:14:24;;;;;;;11.40;3.80;;;22.50;94.70;;;;;;5059429;28;20248;-80
2022/08/19 00:16:53;;;;;;;9.77;3.13;;;22.50;94.70;;;;;;5055853;28;20376;-79
2022/08/19 00:19:24;;;;;;;10.33;2.73;;;22.50;94.60;;;;;;5043161;28;20210;-79
2022/08/19 00:21:52;;;;;;;6.30;2.67;;;22.50;94.60;;;;;;5060953;28;20210;-79
2022/08/19 00:24:19;;;;;;;9.30;2.70;;;22.50;94.60;;;;;;5055576;28;20206;-81
2022/08/19 00:26:47;;;;;;;8.77;3.00;;;22.50;94.40;;;;;;5053080;28;20225;-82
2022/08/19 00:29:19;;;;;;;9.03;3.17;;;22.50;94.40;;;;;;5056496;28;20276;-78
2022/08/19 00:31:47;;;;;;;5.43;2.80;;;22.50;94.50;;;;;;5051150;28;20723;-81
2022/08/19 00:34:16;;;;;;;10.97;2.67;;;22.50;94.70;;;;;;5056330;28;20218;-82
2022/08/19 00:36:44;;;;;;;10.67;3.07;;;22.40;94.30;;;;;;5071993;28;20539;-82
2022/08/19 00:39:12;;;;;;;11.47;2.97;;;22.50;94.40;;;;;;5051780;28;20381;-82
2022/08/19 00:41:40;;;;;;;7.73;3.07;;;22.50;94.50;;;;;;5051892;28;20589;-83
2022/08/19 00:44:14;;;;;;;6.00;2.17;;;22.40;94.60;;;;;;5050491;28;20209;-82
2022/08/19 00:46:44;;;;;;;8.90;2.77;;;22.50;94.60;;;;;;5051520;28;20245;-82
2022/08/19 00:49:32;;;;;;;7.23;2.73;;;22.50;94.60;;;;;;5054519;28;20228;-81
2022/08/19 00:52:12;;;;;;;10.27;2.97;;;22.50;94.60;;;;;;5041316;28;20305;-81
2022/08/19 00:54:40;;;;;;;8.60;2.90;;;22.50;94.60;;;;;;5059719;28;20232;-81
2022/08/19 00:57:12;;;;;;;8.17;2.53;;;22.50;94.60;;;;;;5056143;28;20276;-83
2022/08/19 00:59:41;;;;;;;7.83;2.20;;;22.60;94.60;;;;;;5060831;28;20553;-83
2022/08/19 01:02:29;;;;;;;7.00;2.33;;;22.50;94.60;;;;;;5069431;28;20544;-82
2022/08/19 01:04:57;;;;;;;10.83;3.13;;;22.60;94.70;;;;;;5051321;28;20199;-82
2022/08/19 01:07:24;;;;;;;8.90;2.53;;;22.60;94.60;;;;;;5056930;28;20254;-82
2022/08/19 01:09:52;;;;;;;5.83;2.33;;;22.50;94.60;;;;;;5046064;28;20204;-83
2022/08/19 01:12:20;;;;;;;6.60;2.40;;;22.60;94.70;;;;;;5058082;28;20273;-82
2022/08/19 01:14:48;;;;;;;8.97;2.90;;;22.60;94.70;;;;;;5054963;28;20210;-82
2022/08/19 01:17:15;;;;;;;8.60;2.73;;;22.50;94.50;;;;;;5048921;28;20217;-82
2022/08/19 01:19:45;;;;;;;7.47;2.60;;;22.50;94.60;;;;;;5042385;28;20540;-81
2022/08/19 01:22:21;;;;;;;5.83;2.20;;;22.60;94.60;;;;;;5071330;28;20263;-81
2022/08/19 01:24:59;;;;;;;9.17;2.63;;;22.60;94.60;;;;;;5069402;28;20214;-82
2022/08/19 01:27:26;;;;;;;6.83;2.57;;;22.60;94.50;;;;;;5054541;28;20198;-82
2022/08/19 01:29:59;;;;;;;9.23;2.97;;;22.60;94.50;;;;;;5051247;28;20576;-82
2022/08/19 01:32:26;;;;;;;6.53;2.27;;;22.60;94.40;;;;;;5050419;28;20321;-81
2022/08/19 01:35:01;;;;;;;5.43;1.97;;;22.50;94.30;;;;;;5053884;28;20215;-82
2022/08/19 01:37:30;;;;;;;7.90;2.23;;;22.60;94.20;;;;;;5039786;28;20232;-81
2022/08/19 01:39:57;;;;;;;11.63;3.03;;;22.50;94.20;;;;;;5049820;28;20199;-82
2022/08/19 01:42:25;;;;;;;6.30;2.60;;;22.50;94.10;;;;;;5068914;28;20260;-81
2022/08/19 01:44:57;;;;;;;7.93;2.87;;;22.40;93.70;;;;;;5056103;28;20217;-80
2022/08/19 01:47:24;;;;;;;11.10;2.20;;;22.40;93.80;;;;;;5060107;28;20223;-80
2022/08/19 01:49:51;;;;;;;8.10;2.40;;;22.40;93.40;;;;;;5059611;28;20240;-82
2022/08/19 01:52:19;;;;;;;4.07;1.80;;;22.30;93.10;;;;;;5065411;28;20255;-80
2022/08/19 01:54:46;;;;;;;7.73;2.30;;;22.30;93.20;;;;;;5056032;28;20241;-80
2022/08/19 01:57:14;;;;;;;5.23;1.70;;;22.20;93.20;;;;;;5052722;28;20272;-81
2022/08/19 01:59:44;;;;;;;7.90;2.00;;;22.20;93.20;;;;;;5071279;28;20204;-79
2022/08/19 02:02:11;;;;;;;8.03;2.07;;;22.20;93.20;;;;;;5045839;28;20222;-80
2022/08/19 02:04:39;;;;;;;7.80;2.23;;;22.10;93.20;;;;;;5061690;28;20207;-80
2022/08/19 02:07:07;;;;;;;3.00;1.57;;;22.10;93.20;;;;;;5058858;28;20194;-82
2022/08/19 02:09:35;;;;;;;3.97;1.63;;;22.10;93.20;;;;;;5046740;28;20218;-80
2022/08/19 02:12:04;;;;;;;5.63;1.90;;;22.10;93.40;;;;;;5061816;28;20206;-81
2022/08/19 02:14:34;;;;;;;4.67;2.00;;;22.10;93.50;;;;;;5042006;28;20244;-81
2022/08/19 02:17:01;;;;;;;7.20;1.93;;;22.10;93.60;;;;;;5037238;28;20191;-80
2022/08/19 02:19:29;;;;;;;3.83;1.83;;;22.10;93.60;;;;;;5026215;28;21090;-80
2022/08/19 02:21:56;;;;;;;2.77;1.70;;;22.10;93.70;;;;;;5010432;28;20206;-81
2022/08/19 02:24:23;;;;;;;5.97;1.80;;;22.10;93.70;;;;;;5035623;28;20235;-80
2022/08/19 02:26:51;;;;;;;4.90;1.80;;;22.00;93.80;;;;;;5030738;28;20210;-80
2022/08/19 02:29:18;;;;;;;4.10;1.90;;;22.10;93.80;;;;;;5029503;28;20204;-80
2022/08/19 02:31:46;;;;;;;4.73;1.77;;;22.10;94.00;;;;;;5025406;28;20207;-80
2022/08/19 02:34:13;;;;;;;3.37;1.73;;;22.10;93.60;;;;;;5042213;28;20291;-80
2022/08/19 02:36:41;;;;;;;5.23;1.80;;;22.10;93.50;;;;;;5030452;28;20203;-82
2022/08/19 02:39:09;;;;;;;7.53;2.40;;;22.10;93.40;;;;;;5006382;28;20209;-80
2022/08/19 02:41:36;;;;;;;3.90;1.73;;;22.00;93.50;;;;;;5037823;28;20199;-80
2022/08/19 02:44:04;;;;;;;7.13;2.10;;;22.00;93.60;;;;;;5041141;28;20218;-80
2022/08/19 02:46:52;;;;;;;8.43;2.23;;;22.00;93.70;;;;;;5022486;28;20207;-80
2022/08/19 02:49:19;;;;;;;10.23;2.27;;;22.00;93.70;;;;;;5008182;28;20214;-80
2022/08/19 02:51:47;;;;;;;4.63;1.83;;;22.00;93.80;;;;;;5035372;28;20653;-83
2022/08/19 02:54:14;;;;;;;6.43;2.00;;;22.00;93.90;;;;;;5032723;28;20227;-80
2022/08/19 02:56:43;;;;;;;5.93;2.07;;;22.00;94.00;;;;;;5018635;28;20276;-80
2022/08/19 02:59:11;;;;;;;5.17;1.60;;;22.00;94.00;;;;;;5026433;28;20222;-80
2022/08/19 03:01:41;;;;;;;8.33;1.60;;;22.00;93.90;;;;;;5005509;28;20259;-80
2022/08/19 03:04:12;;;;;;;7.10;1.80;;;21.90;93.70;;;;;;5017114;28;20218;-80
2022/08/19 03:06:41;;;;;;;5.30;2.47;;;21.90;93.70;;;;;;5020128;28;20293;-81
2022/08/19 03:09:09;;;;;;;9.10;2.10;;;21.90;93.70;;;;;;5018213;28;20238;-81
2022/08/19 03:11:37;;;;;;;8.80;1.83;;;21.90;93.70;;;;;;5012595;28;20230;-81
2022/08/19 03:14:07;;;;;;;6.63;2.03;;;21.80;93.70;;;;;;5052943;28;20250;-82
2022/08/19 03:16:44;;;;;;;5.60;1.83;;;21.80;93.70;;;;;;5045713;28;20217;-80
2022/08/19 03:19:13;;;;;;;7.13;1.80;;;21.80;93.80;;;;;;5057662;28;20204;-80
2022/08/19 03:21:42;;;;;;;4.93;1.80;;;21.70;93.80;;;;;;5055481;28;20206;-81
2022/08/19 03:24:09;;;;;;;5.30;1.80;;;21.70;93.80;;;;;;5055172;28;20206;-81
2022/08/19 03:26:46;;;;;;;9.73;2.63;;;21.70;93.80;;;;;;5047741;28;20210;-81
2022/08/19 03:29:15;;;;;;;4.73;2.00;;;21.70;93.80;;;;;;5038331;28;20306;-81
2022/08/19 03:31:58;;;;;;;7.20;2.40;;;21.70;93.80;;;;;;5054042;28;20206;-81
2022/08/19 03:34:29;;;;;;;5.17;2.33;;;21.70;93.90;;;;;;5031852;28;20218;-82
2022/08/19 03:37:02;;;;;;;6.13;1.70;;;21.60;93.90;;;;;;5045737;28;20269;-82
2022/08/19 03:39:29;;;;;;;6.37;1.97;;;21.60;93.90;;;;;;5049167;28;20204;-81
2022/08/19 03:41:58;;;;;;;6.70;2.40;;;21.60;93.90;;;;;;5048583;28;20229;-81
2022/08/19 03:44:45;;;;;;;6.47;2.27;;;21.60;93.90;;;;;;5056735;28;20547;-81
2022/08/19 03:47:15;;;;;;;7.73;2.53;;;21.60;93.60;;;;;;5044974;28;20213;-81
2022/08/19 03:49:43;;;;;;;6.43;1.90;;;21.60;93.60;;;;;;5062216;28;20202;-81
2022/08/19 03:52:10;;;;;;;6.83;2.57;;;21.60;93.70;;;;;;5054740;28;20234;-81
2022/08/19 03:54:39;;;;;;;13.10;2.50;;;21.50;93.80;;;;;;5059640;28;20234;-81
2022/08/19 03:57:08;;;;;;;8.57;2.77;;;21.50;93.80;;;;;;5038710;28;20226;-80
2022/08/19 03:59:37;;;;;;;5.20;2.00;;;21.50;93.80;;;;;;5068245;28;20202;-81
2022/08/19 04:02:09;;;;;;;6.93;2.30;;;21.50;93.80;;;;;;5059596;28;20206;-81
2022/08/19 04:04:39;;;;;;;8.10;2.87;;;21.50;93.90;;;;;;5074716;28;20202;-82
2022/08/19 04:07:09;;;;;;;5.93;2.77;;;21.40;93.90;;;;;;5057271;28;20214;-82
2022/08/19 04:09:36;;;;;;;9.13;3.17;;;21.40;94.00;;;;;;5058927;28;20241;-81
2022/08/19 04:12:05;;;;;;;5.37;2.13;;;21.40;94.10;;;;;;5056140;28;20224;-81
2022/08/19 04:14:33;;;;;;;5.03;2.17;;;21.50;94.10;;;;;;5058009;28;20218;-80
2022/08/19 04:17:04;;;;;;;7.87;2.57;;;21.50;94.10;;;;;;5055841;28;20274;-80
2022/08/19 04:19:34;;;;;;;9.60;2.47;;;21.50;94.50;;;;;;5058539;28;20237;-81
2022/08/19 04:22:02;;;;;;;6.60;2.37;;;21.40;94.30;;;;;;5032557;28;20207;-81
2022/08/19 04:24:30;;;;;;;3.50;2.10;;;21.40;94.40;;;;;;5059224;28;20202;-80
2022/08/19 04:27:00;;;;;;;4.17;2.60;;;21.50;94.50;;;;;;5040529;28;20208;-81
2022/08/19 04:29:28;;;;;;;8.30;2.83;;;21.50;94.60;;;;;;5042398;28;20209;-80
2022/08/19 04:31:56;;;;;;;4.90;2.23;;;21.40;94.70;;;;;;5047189;28;20300;-82
2022/08/19 04:34:26;;;;;;;6.73;2.80;;;21.40;94.80;;;;;;5054860;28;20662;-81
2022/08/19 04:36:55;;;;;;;5.97;2.30;;;21.40;94.90;;;;;;5050555;28;20313;-81
2022/08/19 04:42:40;;;;;;;4.97;2.63;;;21.40;95.00;;;;;;5064920;28;20227;-81
2022/08/19 04:45:11;;;;;;;6.43;2.40;;;21.40;94.90;;;;;;5056547;28;20201;-82
2022/08/19 04:47:41;;;;;;;7.03;3.07;;;21.40;94.80;;;;;;5053767;28;20639;-80
2022/08/19 04:50:24;;;;;;;8.53;3.67;;;21.40;94.80;;;;;;5044912;28;20211;-80
2022/08/19 04:52:52;;;;;;;10.20;4.47;;;21.40;94.70;;;;;;5043257;28;20218;-83
2022/08/19 04:55:19;;;;;;;8.97;4.17;;;21.40;94.70;;;;;;5058068;28;20215;-81
2022/08/19 04:57:47;;;;;;;9.53;4.10;;;21.40;94.70;;;;;;5055166;28;20266;-83
2022/08/19 05:00:14;;;;;;;8.50;4.43;;;21.40;94.70;;;;;;5055836;28;20584;-81
2022/08/19 05:02:41;;;;;;;7.17;3.87;;;21.50;94.60;;;;;;5036073;28;20391;-81
2022/08/19 05:05:09;;;;;;;7.20;3.30;;;21.40;94.60;;;;;;5052065;28;20555;-81
2022/08/19 05:07:36;;;;;;;9.07;3.43;;;21.40;94.60;;;;;;5061792;28;20232;-83
2022/08/19 05:10:05;;;;;;;13.47;5.13;;;21.40;94.50;;;;;;5055256;28;20194;-80
2022/08/19 05:12:33;;;;;;;13.20;4.80;;;21.40;94.60;;;;;;5056707;28;20736;-79
2022/08/19 05:15:02;;;;;;;10.53;4.70;;;21.40;94.90;;;;;;5056242;28;20558;-78
2022/08/19 05:17:29;;;;;;;13.10;5.53;;;21.30;95.00;;;;;;5052284;28;20190;-79
2022/08/19 05:22:52;;;;;;;16.53;7.03;;;21.20;95.60;;;;;;5046935;28;20202;-82
2022/08/19 05:25:21;;;;;;;16.23;8.27;;;21.10;96.10;;;;;;5067419;28;20694;-82
2022/08/19 05:27:50;;;;;;;20.93;8.63;;;21.10;96.50;;;;;;5073267;28;20586;-82
2022/08/19 05:30:18;;;;;;;18.50;8.80;;;21.00;96.70;;;;;;5069435;28;20209;-82
2022/08/19 05:33:09;;;;;;;11.77;8.47;;;21.00;96.90;;;;;;5058552;28;20535;-79
2022/08/19 05:35:38;;;;;;;11.97;6.97;;;21.10;97.20;;;;;;5058471;28;20221;-81
2022/08/19 05:38:08;;;;;;;14.53;6.20;;;21.10;97.30;;;;;;5054712;28;20236;-78
2022/08/19 05:40:36;;;;;;;10.70;5.70;;;21.10;97.20;;;;;;5068665;28;20205;-80
2022/08/19 05:43:06;;;;;;;12.53;5.90;;;21.10;97.10;;;;;;5032688;28;20232;-78
2022/08/19 05:45:39;;;;;;;14.93;6.83;;;21.00;97.00;;;;;;5051277;28;20210;-80
2022/08/19 05:48:06;;;;;;;18.10;8.33;;;21.00;97.20;;;;;;5055004;28;20639;-82
2022/08/19 05:50:35;;;;;;;7.67;4.80;;;21.00;97.40;;;;;;5037870;28;20210;-79
2022/08/19 05:53:03;;;;;;;8.73;4.10;;;21.00;97.60;;;;;;5039854;28;20217;-81
2022/08/19 05:55:31;;;;;;;9.60;3.87;;;21.00;97.70;;;;;;5045712;28;20254;-79
2022/08/19 05:57:59;;;;;;;6.73;3.00;;;21.00;97.70;;;;;;5049449;28;20208;-81
2022/08/19 06:00:26;;;;;;;11.23;3.03;;;21.00;97.70;;;;;;5052947;28;20198;-81
2022/08/19 06:02:56;;;;;;;7.30;2.57;;;21.00;97.60;;;;;;5040049;28;20203;-79
2022/08/19 06:18:21;;;;;;;6.97;1.80;;;21.00;96.10;;;;;;5137630;27;20606;-67
2022/08/19 06:20:49;;;;;;;4.70;1.50;;;20.70;94.70;;;;;;5119118;27;20202;-67
2022/08/19 06:23:22;;;;;;;1.07;0.80;;;20.50;95.10;;;;;;5138131;27;20231;-67
2022/08/19 06:25:50;;;;;;;2.77;1.07;;;20.40;95.10;;;;;;5127007;27;20225;-67
2022/08/19 06:28:17;;;;;;;2.13;0.67;;;20.20;94.30;;;;;;5133499;27;20227;-67
2022/08/19 06:30:45;;;;;;;4.17;1.00;;;20.00;94.40;;;;;;5141008;27;20206;-67
2022/08/19 06:33:12;;;;;;;4.23;1.03;;;19.90;94.90;;;;;;5118934;27;20204;-67
2022/08/19 06:35:42;;;;;;;2.53;1.47;;;19.90;95.30;;;;;;5141263;27;20192;-67
2022/08/19 06:38:09;;;;;;;1.27;0.60;;;19.90;95.50;;;;;;5122663;27;20195;-67
2022/08/19 06:40:37;;;;;;;1.07;0.70;;;19.90;95.40;;;;;;5142891;27;20686;-67
2022/08/19 06:43:05;;;;;;;2.10;1.10;;;20.00;94.90;;;;;;5136710;27;20216;-67
2022/08/19 06:45:38;;;;;;;1.00;0.90;;;20.00;95.40;;;;;;5124737;27;20197;-67
2022/08/19 06:48:06;;;;;;;6.47;1.57;;;19.90;96.00;;;;;;5123466;27;20197;-66
2022/08/19 06:50:33;;;;;;;3.30;1.53;;;19.90;96.70;;;;;;5129045;27;20250;-67
2022/08/19 06:53:05;;;;;;;9.03;2.70;;;19.90;97.20;;;;;;5137774;27;20223;-67
2022/08/19 06:55:32;;;;;;;6.90;2.43;;;20.00;97.50;;;;;;5135647;27;20199;-67
2022/08/19 06:58:03;;;;;;;8.03;2.63;;;20.00;97.70;;;;;;5122859;27;20578;-67
2022/08/19 07:00:31;;;;;;;6.33;3.13;;;20.10;98.10;;;;;;5123729;27;20416;-67
2022/08/19 07:03:00;;;;;;;9.03;3.07;;;20.20;98.20;;;;;;5125133;27;20206;-68
2022/08/19 07:05:41;;;;;;;14.77;3.50;;;20.20;98.20;;;;;;5136714;27;20237;-68
2022/08/19 07:08:13;;;;;;;6.17;2.93;;;20.20;98.20;;;;;;5126746;27;20198;-67
2022/08/19 07:10:44;;;;;;;4.43;2.37;;;20.20;98.20;;;;;;5138994;27;20188;-67
2022/08/19 07:13:11;;;;;;;8.77;2.70;;;20.30;98.20;;;;;;5122173;27;20528;-67
2022/08/19 07:15:38;;;;;;;6.73;2.80;;;20.30;98.20;;;;;;5119589;27;20224;-67
2022/08/19 07:18:05;;;;;;;8.43;2.80;;;20.30;98.10;;;;;;5128323;27;20239;-67
2022/08/19 07:20:39;;;;;;;3.83;2.40;;;20.30;98.10;;;;;;5103709;27;20206;-68
2022/08/19 07:23:08;;;;;;;7.10;3.07;;;20.30;98.10;;;;;;5111270;27;20199;-67
2022/08/19 07:25:42;;;;;;;6.67;2.97;;;20.30;98.10;;;;;;5113162;27;20624;-67
2022/08/19 07:28:09;;;;;;;5.73;2.67;;;20.30;98.20;;;;;;5122056;27;20222;-67
2022/08/19 07:30:50;;;;;;;7.27;3.30;;;20.30;98.30;;;;;;5124616;27;20198;-68
2022/08/19 07:33:19;;;;;;;6.93;3.00;;;20.40;98.20;;;;;;5120687;27;20231;-68
2022/08/19 07:35:46;;;;;;;4.80;3.07;;;20.40;98.30;;;;;;5113008;27;20576;-67
2022/08/19 07:38:14;;;;;;;4.20;2.63;;;20.40;98.30;;;;;;5121306;27;20193;-67
2022/08/19 07:40:42;;;;;;;10.00;3.37;;;20.40;98.30;;;;;;5104022;27;20762;-68
2022/08/19 07:43:09;;;;;;;6.20;3.13;;;20.40;98.40;;;;;;5113305;27;20651;-68
2022/08/19 07:45:43;;;;;;;5.07;2.97;;;20.50;98.50;;;;;;5118743;27;20594;-67
2022/08/19 07:48:10;;;;;;;4.53;2.50;;;20.50;98.40;;;;;;5108585;27;20224;-67
2022/08/19 07:50:37;;;;;;;4.93;2.70;;;20.60;98.40;;;;;;5125113;27;20278;-67
2022/08/19 07:53:04;;;;;;;5.00;2.53;;;20.60;98.40;;;;;;5126114;27;20191;-67
2022/08/19 07:55:31;;;;;;;4.13;2.30;;;20.70;98.30;;;;;;5125578;27;20680;-67
2022/08/19 07:58:14;;;;;;;3.93;2.47;;;20.80;98.30;;;;;;5110528;27;20223;-67
2022/08/19 08:00:43;;;;;;;6.83;2.40;;;20.80;98.10;;;;;;5122758;27;20387;-67
2022/08/19 08:03:11;;;;;;;2.73;2.20;;;20.80;98.00;;;;;;5111489;27;20317;-67
2022/08/19 08:11:16;;;;;;;3.53;2.10;;;20.90;97.40;;;;;;5124032;27;20207;-67
2022/08/19 08:13:46;;;;;;;3.90;2.00;;;20.90;97.50;;;;;;5119721;27;20426;-67
2022/08/19 08:16:31;;;;;;;3.73;1.87;;;20.90;97.40;;;;;;5116049;27;20806;-68
2022/08/19 08:18:59;;;;;;;7.50;2.23;;;20.90;97.40;;;;;;5090796;27;20224;-68
2022/08/19 08:21:27;;;;;;;2.97;1.63;;;21.00;97.30;;;;;;5095101;27;20247;-67
2022/08/19 08:23:55;;;;;;;4.83;1.73;;;21.00;97.30;;;;;;5115612;27;20188;-67
2022/08/19 08:26:24;;;;;;;4.50;1.90;;;21.00;97.30;;;;;;5116220;27;20776;-67
2022/08/19 08:28:52;;;;;;;2.67;1.63;;;21.10;97.30;;;;;;5107597;27;20220;-67
2022/08/19 08:31:20;;;;;;;4.43;1.47;;;21.10;97.30;;;;;;5110099;27;20209;-67
2022/08/19 08:33:47;;;;;;;4.87;1.80;;;21.20;97.20;;;;;;5097121;28;20535;-67
2022/08/19 08:36:15;;;;;;;2.67;1.90;;;21.30;97.20;;;;;;5117146;27;20188;-67
2022/08/19 08:38:46;;;;;;;5.27;1.93;;;21.30;97.20;;;;;;5086686;27;20203;-67
2022/08/19 08:41:44;;;;;;;3.37;1.47;;;21.40;97.10;;;;;;5117257;27;20231;-67
2022/08/19 08:44:19;;;;;;;2.60;1.70;;;21.50;97.10;;;;;;5116773;27;20566;-67
2022/08/19 08:47:02;;;;;;;2.57;2.00;;;21.60;97.00;;;;;;5117960;27;20204;-67
2022/08/19 08:49:36;;;;;;;2.50;1.50;;;21.70;97.00;;;;;;5081791;27;20549;-67
2022/08/19 08:52:07;;;;;;;8.43;1.70;;;21.80;96.90;;;;;;5081483;27;20203;-67
2022/08/19 08:54:44;;;;;;;6.03;2.07;;;21.90;96.70;;;;;;5114484;27;20207;-68
2022/08/19 08:57:33;;;;;;;1.97;1.60;;;22.00;96.60;;;;;;5118439;27;20200;-67
2022/08/19 09:00:30;;;;;;;6.03;1.63;;;22.10;96.30;;;;;;5114570;27;20215;-68
2022/08/19 09:02:59;;;;;;;3.40;2.03;;;22.30;95.90;;;;;;5110759;27;20212;-68
2022/08/19 09:05:45;;;;;;;3.47;1.90;;;22.50;96.00;;;;;;5100696;27;20196;-68
2022/08/19 09:08:37;;;;;;;3.23;1.83;;;22.90;95.70;;;;;;5108758;27;20220;-68
2022/08/19 09:11:09;;;;;;;4.20;2.20;;;23.30;93.40;;;;;;5099182;27;20212;-68
2022/08/19 09:13:49;;;;;;;3.47;1.73;;;23.40;93.00;;;;;;5115325;27;20197;-68
2022/08/19 09:16:20;;;;;;;7.10;2.27;;;23.50;92.30;;;;;;5092914;28;20234;-68
2022/08/19 09:19:00;;;;;;;1.40;1.30;;;23.60;92.30;;;;;;5114946;27;20207;-68
2022/08/19 09:21:28;;;;;;;3.50;1.70;;;23.70;92.40;;;;;;5104835;27;20191;-68
2022/08/19 09:23:59;;;;;;;2.87;1.67;;;23.80;92.10;;;;;;5106065;27;20217;-67
2022/08/19 09:26:31;;;;;;;4.87;2.10;;;23.90;91.00;;;;;;5122409;27;20192;-68
2022/08/19 09:29:18;;;;;;;4.27;1.50;;;24.00;91.30;;;;;;5118981;27;20219;-67
2022/08/19 09:31:49;;;;;;;2.10;1.37;;;24.20;89.40;;;;;;5105479;27;20200;-68
2022/08/19 09:34:17;;;;;;;1.00;1.00;;;24.30;85.70;;;;;;5091487;28;20208;-68
2022/08/19 09:36:52;;;;;;;1.87;0.97;;;24.20;85.60;;;;;;5109978;28;20197;-68
2022/08/19 09:39:21;;;;;;;1.87;1.17;;;24.10;86.70;;;;;;5089139;27;20210;-68
2022/08/19 09:41:49;;;;;;;4.47;1.03;;;24.10;87.00;;;;;;5119401;27;20256;-67
2022/08/19 09:44:19;;;;;;;3.07;1.10;;;24.20;85.80;;;;;;5103107;27;20203;-67
2022/08/19 09:46:47;;;;;;;3.93;0.97;;;24.20;86.70;;;;;;5116651;27;20583;-68
2022/08/19 09:49:17;;;;;;;2.27;0.93;;;24.20;85.90;;;;;;5116815;27;20197;-68
2022/08/19 09:51:45;;;;;;;2.10;1.07;;;24.30;85.70;;;;;;5101033;27;20828;-68
2022/08/19 09:54:17;;;;;;;2.30;1.00;;;24.40;86.90;;;;;;5113790;27;20734;-67
2022/08/19 09:56:52;;;;;;;3.63;0.93;;;24.50;86.30;;;;;;5093092;28;20205;-68
2022/08/19 09:59:19;;;;;;;2.47;1.00;;;24.50;84.80;;;;;;5087136;28;20216;-68
2022/08/19 10:01:46;;;;;;;3.30;1.07;;;24.60;85.40;;;;;;5111258;28;20204;-68
2022/08/19 10:04:15;;;;;;;1.03;1.00;;;24.80;86.20;;;;;;5109540;28;20200;-68
2022/08/19 10:06:50;;;;;;;1.50;0.77;;;24.90;85.50;;;;;;5106345;28;20274;-67
2022/08/19 10:09:20;;;;;;;1.20;0.90;;;25.00;84.40;;;;;;5111410;28;20316;-67
2022/08/19 10:11:52;;;;;;;2.63;1.60;;;25.00;80.70;;;;;;5102874;28;20882;-68
2022/08/19 10:14:23;;;;;;;1.00;0.90;;;25.00;80.20;;;;;;5122035;28;20203;-68
2022/08/19 10:16:51;;;;;;;1.37;0.73;;;25.00;81.20;;;;;;5108912;28;20246;-67
2022/08/19 10:19:21;;;;;;;0.77;0.63;;;25.00;82.00;;;;;;5090289;28;20201;-68
2022/08/19 10:21:53;;;;;;;4.10;0.83;;;25.20;79.80;;;;;;5104694;28;20202;-68
2022/08/19 10:24:27;;;;;;;2.87;1.00;;;25.20;78.60;;;;;;5082002;28;20200;-67
2022/08/19 10:26:55;;;;;;;1.00;0.60;;;25.20;79.80;;;;;;5115105;28;20507;-67
2022/08/19 10:29:27;;;;;;;3.43;0.80;;;25.40;78.70;;;;;;5070906;28;20274;-68
2022/08/19 10:32:05;;;;;;;1.13;0.90;;;25.40;78.20;;;;;;5098688;28;20196;-68
2022/08/19 10:34:39;;;;;;;3.43;1.00;;;25.40;77.50;;;;;;5117420;28;20374;-67
2022/08/19 10:37:14;;;;;;;1.23;0.70;;;25.50;77.20;;;;;;5117571;28;20201;-67
2022/08/19 10:39:50;;;;;;;0.97;0.87;;;25.90;78.50;;;;;;5114141;28;20198;-67
2022/08/19 10:42:18;;;;;;;2.67;1.03;;;26.20;78.10;;;;;;5102948;28;20292;-67
2022/08/19 10:44:49;;;;;;;3.67;1.20;;;26.40;77.50;;;;;;5107846;28;20197;-68
2022/08/19 10:47:18;;;;;;;2.87;1.13;;;26.50;76.70;;;;;;5101623;28;20231;-68
2022/08/19 10:52:45;;;;;;;1.37;0.90;;;26.60;75.80;;;;;;5040871;27;20196;-68
2022/08/19 10:58:13;;;;;;;1.10;0.90;;;26.60;74.40;;;;;;5113100;27;20203;-68
2022/08/19 11:00:42;;;;;;;4.60;0.87;;;26.50;74.40;;;;;;5114444;27;20219;-68
2022/08/19 11:03:10;;;;;;;1.53;0.93;;;26.50;75.20;;;;;;5082573;28;20635;-68
2022/08/19 11:05:38;;;;;;;1.03;0.60;;;26.70;75.50;;;;;;5105342;27;20204;-67
2022/08/19 11:08:11;;;;;;;4.90;0.70;;;26.90;73.40;;;;;;5090866;27;20223;-67
2022/08/19 11:10:57;;;;;;;2.43;0.70;;;27.10;70.70;;;;;;5118209;27;20281;-67
2022/08/19 11:13:24;;;;;;;0.90;0.70;;;27.10;69.70;;;;;;5117852;27;20222;-68
2022/08/19 11:15:59;;;;;;;1.50;0.80;;;27.10;70.70;;;;;;5106969;27;20202;-68
2022/08/19 11:18:37;;;;;;;2.23;0.80;;;27.00;71.70;;;;;;5072532;28;20250;-67
2022/08/19 11:21:10;;;;;;;1.23;0.70;;;27.00;71.80;;;;;;5080491;28;20247;-67
2022/08/19 11:23:38;;;;;;;1.33;0.50;;;27.00;71.10;;;;;;5072527;28;20215;-68
2022/08/19 11:26:05;;;;;;;0.50;0.50;;;27.10;69.60;;;;;;5074346;28;20198;-68
2022/08/19 11:28:33;;;;;;;3.10;0.67;;;27.30;66.40;;;;;;5069789;28;20297;-67
2022/08/19 11:31:00;;;;;;;2.60;0.93;;;27.40;67.90;;;;;;5076132;28;20259;-68
2022/08/19 11:33:27;;;;;;;0.87;0.77;;;27.60;68.20;;;;;;5072216;28;20297;-68
2022/08/19 11:35:56;;;;;;;1.37;0.97;;;27.70;66.80;;;;;;5074143;28;20208;-68
2022/08/19 11:38:23;;;;;;;2.17;0.80;;;27.70;66.70;;;;;;5076736;28;21215;-67
2022/08/19 11:41:01;;;;;;;2.33;1.20;;;27.40;65.80;;;;;;5080740;28;20210;-67
2022/08/19 11:43:28;;;;;;;2.87;1.00;;;27.00;67.00;;;;;;5078587;28;20200;-67
2022/08/19 11:46:15;;;;;;;2.33;1.13;;;26.80;69.70;;;;;;5071361;28;20536;-68
2022/08/19 11:48:43;;;;;;;1.47;1.20;;;26.80;68.70;;;;;;5071148;28;20287;-68
2022/08/19 11:51:13;;;;;;;1.47;0.83;;;26.80;68.80;;;;;;5073214;28;20270;-67
2022/08/19 11:53:40;;;;;;;1.70;1.17;;;26.80;67.70;;;;;;5074143;28;20546;-67
2022/08/19 11:56:09;;;;;;;1.37;1.17;;;26.90;68.00;;;;;;5074114;28;20286;-67
2022/08/19 11:58:37;;;;;;;2.83;0.93;;;26.90;67.30;;;;;;5073780;28;20630;-67
2022/08/19 12:01:09;;;;;;;1.73;0.87;;;26.80;66.90;;;;;;5077337;28;20283;-67
2022/08/19 12:03:36;;;;;;;2.37;0.90;;;26.80;67.80;;;;;;5076791;28;20725;-67
2022/08/19 12:06:07;;;;;;;2.63;0.87;;;26.80;66.40;;;;;;5083798;28;20210;-67
2022/08/19 12:08:36;;;;;;;1.63;1.00;;;26.80;65.70;;;;;;5081230;28;20671;-68
2022/08/19 12:11:03;;;;;;;4.33;1.20;;;26.90;64.70;;;;;;5074201;28;20255;-68
2022/08/19 12:13:31;;;;;;;1.37;0.80;;;26.80;66.40;;;;;;5073022;28;20623;-68
2022/08/19 12:15:59;;;;;;;1.77;0.77;;;26.70;66.30;;;;;;5045386;28;20789;-68
2022/08/19 12:18:26;;;;;;;2.07;0.90;;;26.60;68.80;;;;;;5100944;27;20234;-68
2022/08/19 12:20:57;;;;;;;5.13;1.00;;;26.60;66.60;;;;;;5105792;27;20219;-68
2022/08/19 12:23:24;;;;;;;3.90;1.20;;;26.50;66.70;;;;;;5102806;27;20239;-68
2022/08/19 12:25:51;;;;;;;1.13;0.90;;;26.50;68.70;;;;;;5116296;27;20202;-68
2022/08/19 12:28:20;;;;;;;3.13;1.00;;;26.60;69.60;;;;;;5111776;27;20662;-68
2022/08/19 12:30:50;;;;;;;1.43;0.63;;;26.80;67.90;;;;;;5102554;27;20228;-68
2022/08/19 12:33:19;;;;;;;2.07;0.83;;;27.00;66.60;;;;;;5084010;28;20233;-68
2022/08/19 12:35:46;;;;;;;0.73;0.70;;;27.00;66.60;;;;;;5103855;27;20680;-68
2022/08/19 12:38:14;;;;;;;186.50;168.77;;;27.10;65.40;;;;;;5089365;27;20231;-68
2022/08/19 12:40:45;;;;;;;31.73;27.13;;;27.10;65.40;;;;;;5068908;27;20698;-68
2022/08/19 12:43:13;;;;;;;621.20;386.07;;;27.00;67.20;;;;;;5101032;27;20193;-68
2022/08/19 12:45:42;;;;;;;1865.37;840.20;;;27.10;65.40;;;;;;5095701;27;20510;-68
2022/08/19 12:48:09;;;;;;;804.13;534.57;;;27.00;64.90;;;;;;5093025;28;20305;-69
2022/08/19 12:50:57;;;;;;;229.87;136.90;;;27.00;66.10;;;;;;5111428;27;20199;-69
2022/08/19 12:53:24;;;;;;;17.70;13.33;;;27.00;65.50;;;;;;5117225;27;20224;-68
2022/08/19 12:55:57;;;;;;;67.33;36.60;;;26.90;65.00;;;;;;5097202;28;20273;-69
2022/08/19 12:58:24;;;;;;;9.63;7.17;;;26.80;65.70;;;;;;5108837;27;20228;-69
2022/08/19 13:00:53;;;;;;;5.33;2.60;;;26.60;67.50;;;;;;5109114;27;20265;-68
2022/08/19 13:03:27;;;;;;;6.57;3.77;;;26.50;68.40;;;;;;5087727;27;20209;-68
2022/08/19 13:05:54;;;;;;;1.67;0.90;;;26.30;68.50;;;;;;5109978;27;20231;-68
2022/08/19 13:08:21;;;;;;;1.27;0.90;;;26.10;69.00;;;;;;5099518;27;20255;-68
2022/08/19 13:10:50;;;;;;;2.93;1.00;;;26.00;70.00;;;;;;5118255;27;20204;-68
2022/08/19 13:13:17;;;;;;;4.77;1.00;;;25.90;70.50;;;;;;5096063;27;20200;-68
2022/08/19 13:15:45;;;;;;;2.17;0.87;;;26.00;71.40;;;;;;5094129;27;20197;-68
2022/08/19 13:18:14;;;;;;;1.67;1.00;;;26.10;70.30;;;;;;5092125;28;20292;-68
2022/08/19 13:20:41;;;;;;;2.53;0.90;;;26.30;69.40;;;;;;5110120;28;20212;-68
2022/08/19 13:23:18;;;;;;;1.97;0.70;;;26.50;67.90;;;;;;5116392;27;20209;-68
2022/08/19 13:25:55;;;;;;;2.67;0.80;;;26.60;66.50;;;;;;5114382;27;20762;-68
2022/08/19 13:28:22;;;;;;;1.47;0.63;;;26.70;67.80;;;;;;5114904;27;20331;-69
2022/08/19 13:33:45;;;;;;;1.47;0.80;;;26.90;67.20;;;;;;5075833;27;20236;-68
2022/08/19 13:36:12;;;;;;;2.37;0.80;;;26.90;66.80;;;;;;5100603;28;20201;-68